Henryton, Maryland
Current Conditions -  °F | °C
As of 8:54 AM on Friday 24 Oct 2014 (Local Time) from KBWI Reporting Station
Scattered Clouds Scattered Clouds  
Wind Chill: 56°   Ceiling: Unl
Heat Index: 56°   Visibility: 10mi
Dew Point: 43°   Wind: 9mph
Humidity: 62%   Direction: 280°W
Pressure: 29.95"   Gusts: 17mph
Location:  39.35°N, 76.9°W
Report Text: KBWI 241254Z 28008G15KT 10SM FEW160 SCT250 13/06 A2995 RMK AO2 SLP141 T01330061
Loading
Personal Weather Stations






























Interactive Weather Map
Tropical Storm Tracking
New forecast layout! Learn more

10-Day Weather Forecast

Advertisements
Track Severe Weather on mobile